sensor_id;sensor_type;location;lat;lon;timestamp;pressure;altitude;pressure_sealevel;temperature;humidity
81641;BME280;74020;50.722;-1.944;2024-02-21T00:01:15;101665.04;;;10.43;100.00
81641;BME280;74020;50.722;-1.944;2024-02-21T00:03:34;101655.12;;;10.30;100.00
81641;BME280;74020;50.722;-1.944;2024-02-21T00:05:59;101651.74;;;10.30;100.00
81641;BME280;74020;50.722;-1.944;2024-02-21T00:08:25;101646.56;;;10.24;100.00
81641;BME280;74020;50.722;-1.944;2024-02-21T00:10:50;101639.90;;;10.30;100.00
81641;BME280;74020;50.722;-1.944;2024-02-21T00:13:15;101640.31;;;10.25;100.00
81641;BME280;74020;50.722;-1.944;2024-02-21T00:15:41;101635.17;;;10.42;100.00
81641;BME280;74020;50.722;-1.944;2024-02-21T00:18:06;101636.23;;;10.48;100.00
81641;BME280;74020;50.722;-1.944;2024-02-21T00:20:34;101633.39;;;10.43;100.00
81641;BME280;74020;50.722;-1.944;2024-02-21T00:22:57;101625.57;;;10.50;100.00
81641;BME280;74020;50.722;-1.944;2024-02-21T00:25:22;101627.12;;;10.56;100.00
81641;BME280;74020;50.722;-1.944;2024-02-21T00:27:48;101620.37;;;10.56;100.00
81641;BME280;74020;50.722;-1.944;2024-02-21T00:30:13;101614.39;;;10.63;100.00
81641;BME280;74020;50.722;-1.944;2024-02-21T00:32:38;101606.24;;;10.73;100.00
81641;BME280;74020;50.722;-1.944;2024-02-21T00:35:04;101600.78;;;10.66;100.00
81641;BME280;74020;50.722;-1.944;2024-02-21T00:37:29;101600.42;;;10.48;100.00
81641;BME280;74020;50.722;-1.944;2024-02-21T00:39:55;101590.30;;;10.61;100.00
81641;BME280;74020;50.722;-1.944;2024-02-21T00:42:20;101583.07;;;10.61;100.00
81641;BME280;74020;50.722;-1.944;2024-02-21T00:44:45;101576.75;;;10.87;100.00
81641;BME280;74020;50.722;-1.944;2024-02-21T00:47:10;101565.14;;;10.71;100.00
81641;BME280;74020;50.722;-1.944;2024-02-21T00:49:36;101548.61;;;10.91;99.57
81641;BME280;74020;50.722;-1.944;2024-02-21T00:52:02;101547.63;;;10.74;99.44
81641;BME280;74020;50.722;-1.944;2024-02-21T00:54:27;101536.40;;;10.94;98.32
81641;BME280;74020;50.722;-1.944;2024-02-21T00:56:52;101532.87;;;10.95;99.28
81641;BME280;74020;50.722;-1.944;2024-02-21T00:59:18;101526.82;;;10.89;100.00
81641;BME280;74020;50.722;-1.944;2024-02-21T01:01:43;101526.95;;;10.87;99.71
81641;BME280;74020;50.722;-1.944;2024-02-21T01:04:09;101522.28;;;10.79;99.48
81641;BME280;74020;50.722;-1.944;2024-02-21T01:06:34;101516.77;;;10.74;99.60
81641;BME280;74020;50.722;-1.944;2024-02-21T01:08:59;101507.57;;;10.70;100.00
81641;BME280;74020;50.722;-1.944;2024-02-21T01:11:24;101487.70;;;10.97;100.00
81641;BME280;74020;50.722;-1.944;2024-02-21T01:13:52;101477.16;;;10.89;99.14
81641;BME280;74020;50.722;-1.944;2024-02-21T01:16:15;101488.20;;;10.85;100.00
81641;BME280;74020;50.722;-1.944;2024-02-21T01:18:40;101480.87;;;10.96;99.32
81641;BME280;74020;50.722;-1.944;2024-02-21T01:21:07;101471.52;;;10.65;100.00
81641;BME280;74020;50.722;-1.944;2024-02-21T01:23:31;101467.97;;;10.80;99.53
81641;BME280;74020;50.722;-1.944;2024-02-21T01:25:56;101459.57;;;10.74;100.00
81641;BME280;74020;50.722;-1.944;2024-02-21T01:28:22;101458.03;;;10.72;99.13
81641;BME280;74020;50.722;-1.944;2024-02-21T01:30:47;101455.36;;;10.75;99.87
81641;BME280;74020;50.722;-1.944;2024-02-21T01:33:13;101450.77;;;10.64;100.00
81641;BME280;74020;50.722;-1.944;2024-02-21T01:35:38;101448.46;;;10.73;99.19
81641;BME280;74020;50.722;-1.944;2024-02-21T01:38:03;101440.49;;;10.79;99.27
81641;BME280;74020;50.722;-1.944;2024-02-21T01:40:28;101430.89;;;10.77;99.38
81641;BME280;74020;50.722;-1.944;2024-02-21T01:42:55;101431.47;;;10.70;99.63
81641;BME280;74020;50.722;-1.944;2024-02-21T01:45:19;101423.04;;;10.49;100.00
81641;BME280;74020;50.722;-1.944;2024-02-21T01:47:45;101428.11;;;10.68;98.30
81641;BME280;74020;50.722;-1.944;2024-02-21T01:50:10;101414.94;;;10.50;99.64
81641;BME280;74020;50.722;-1.944;2024-02-21T01:52:35;101404.98;;;10.57;99.92
81641;BME280;74020;50.722;-1.944;2024-02-21T01:55:00;101404.38;;;10.38;100.00
81641;BME280;74020;50.722;-1.944;2024-02-21T01:57:26;101398.88;;;10.55;100.00
81641;BME280;74020;50.722;-1.944;2024-02-21T01:59:51;101392.44;;;10.59;99.83
81641;BME280;74020;50.722;-1.944;2024-02-21T02:02:17;101388.80;;;10.53;100.00
81641;BME280;74020;50.722;-1.944;2024-02-21T02:04:41;101391.31;;;10.54;100.00
81641;BME280;74020;50.722;-1.944;2024-02-21T02:07:07;101389.88;;;10.64;99.16
81641;BME280;74020;50.722;-1.944;2024-02-21T02:09:32;101385.75;;;10.63;97.97
81641;BME280;74020;50.722;-1.944;2024-02-21T02:11:57;101378.26;;;10.59;98.37
81641;BME280;74020;50.722;-1.944;2024-02-21T02:14:22;101370.53;;;10.52;99.43
81641;BME280;74020;50.722;-1.944;2024-02-21T02:16:48;101363.73;;;10.37;100.00
81641;BME280;74020;50.722;-1.944;2024-02-21T02:19:13;101356.28;;;10.51;99.47
81641;BME280;74020;50.722;-1.944;2024-02-21T02:21:40;101350.86;;;10.59;98.66
81641;BME280;74020;50.722;-1.944;2024-02-21T02:24:04;101348.75;;;10.53;99.91
81641;BME280;74020;50.722;-1.944;2024-02-21T02:26:29;101341.01;;;10.36;100.00
81641;BME280;74020;50.722;-1.944;2024-02-21T02:28:55;101343.48;;;10.34;100.00
81641;BME280;74020;50.722;-1.944;2024-02-21T02:31:20;101338.95;;;10.46;99.92
81641;BME280;74020;50.722;-1.944;2024-02-21T02:33:45;101336.97;;;10.24;100.00
81641;BME280;74020;50.722;-1.944;2024-02-21T02:36:11;101342.57;;;10.29;100.00
81641;BME280;74020;50.722;-1.944;2024-02-21T02:38:37;101340.82;;;10.19;100.00
81641;BME280;74020;50.722;-1.944;2024-02-21T02:41:02;101336.77;;;10.04;100.00
81641;BME280;74020;50.722;-1.944;2024-02-21T02:43:27;101334.70;;;10.17;100.00
81641;BME280;74020;50.722;-1.944;2024-02-21T02:45:52;101331.48;;;9.97;100.00
81641;BME280;74020;50.722;-1.944;2024-02-21T02:48:17;101330.48;;;9.79;100.00
81641;BME280;74020;50.722;-1.944;2024-02-21T02:50:43;101326.28;;;9.89;100.00
81641;BME280;74020;50.722;-1.944;2024-02-21T02:53:08;101328.93;;;9.85;100.00
81641;BME280;74020;50.722;-1.944;2024-02-21T02:55:33;101326.96;;;9.82;100.00
81641;BME280;74020;50.722;-1.944;2024-02-21T02:57:59;101317.50;;;9.82;100.00
81641;BME280;74020;50.722;-1.944;2024-02-21T03:00:24;101311.89;;;9.83;100.00
81641;BME280;74020;50.722;-1.944;2024-02-21T03:02:50;101303.47;;;9.78;100.00
81641;BME280;74020;50.722;-1.944;2024-02-21T03:05:16;101290.92;;;9.78;100.00
81641;BME280;74020;50.722;-1.944;2024-02-21T03:07:42;101277.36;;;9.85;100.00
81641;BME280;74020;50.722;-1.944;2024-02-21T03:10:06;101276.03;;;9.73;100.00
81641;BME280;74020;50.722;-1.944;2024-02-21T03:12:30;101269.56;;;9.81;100.00
81641;BME280;74020;50.722;-1.944;2024-02-21T03:14:56;101262.76;;;9.93;100.00
81641;BME280;74020;50.722;-1.944;2024-02-21T03:17:21;101257.28;;;9.86;100.00
81641;BME280;74020;50.722;-1.944;2024-02-21T03:19:46;101253.56;;;9.79;100.00
81641;BME280;74020;50.722;-1.944;2024-02-21T03:22:12;101239.26;;;9.79;100.00
81641;BME280;74020;50.722;-1.944;2024-02-21T03:24:37;101236.57;;;9.78;100.00
81641;BME280;74020;50.722;-1.944;2024-02-21T03:27:03;101230.78;;;9.82;100.00
81641;BME280;74020;50.722;-1.944;2024-02-21T03:29:28;101221.42;;;9.94;100.00
81641;BME280;74020;50.722;-1.944;2024-02-21T03:31:53;101219.14;;;9.87;100.00
81641;BME280;74020;50.722;-1.944;2024-02-21T03:34:19;101216.04;;;9.97;100.00
81641;BME280;74020;50.722;-1.944;2024-02-21T03:36:44;101210.00;;;9.86;100.00
81641;BME280;74020;50.722;-1.944;2024-02-21T03:39:10;101207.42;;;9.84;100.00
81641;BME280;74020;50.722;-1.944;2024-02-21T03:41:35;101203.29;;;9.71;100.00
81641;BME280;74020;50.722;-1.944;2024-02-21T03:44:00;101201.92;;;9.74;100.00
81641;BME280;74020;50.722;-1.944;2024-02-21T03:46:25;101193.17;;;9.67;100.00
81641;BME280;74020;50.722;-1.944;2024-02-21T03:51:16;101183.00;;;9.71;100.00
81641;BME280;74020;50.722;-1.944;2024-02-21T03:53:41;101176.92;;;9.76;100.00
81641;BME280;74020;50.722;-1.944;2024-02-21T03:56:06;101169.58;;;9.80;100.00
81641;BME280;74020;50.722;-1.944;2024-02-21T03:58:32;101161.08;;;9.72;100.00
81641;BME280;74020;50.722;-1.944;2024-02-21T04:00:59;101149.51;;;9.80;100.00
81641;BME280;74020;50.722;-1.944;2024-02-21T04:03:22;101145.24;;;9.74;100.00
81641;BME280;74020;50.722;-1.944;2024-02-21T04:05:48;101137.04;;;9.82;100.00
81641;BME280;74020;50.722;-1.944;2024-02-21T04:08:14;101130.39;;;9.74;100.00
81641;BME280;74020;50.722;-1.944;2024-02-21T04:10:39;101121.03;;;9.81;100.00
81641;BME280;74020;50.722;-1.944;2024-02-21T04:13:04;101118.30;;;9.82;100.00
81641;BME280;74020;50.722;-1.944;2024-02-21T04:15:29;101109.74;;;9.88;100.00
81641;BME280;74020;50.722;-1.944;2024-02-21T04:17:54;101111.05;;;9.78;100.00
81641;BME280;74020;50.722;-1.944;2024-02-21T04:20:20;101102.85;;;9.75;100.00
81641;BME280;74020;50.722;-1.944;2024-02-21T04:22:45;101102.10;;;9.84;100.00
81641;BME280;74020;50.722;-1.944;2024-02-21T04:25:10;101102.59;;;9.90;100.00
81641;BME280;74020;50.722;-1.944;2024-02-21T04:27:36;101096.64;;;9.86;100.00
81641;BME280;74020;50.722;-1.944;2024-02-21T04:30:01;101101.48;;;9.88;100.00
81641;BME280;74020;50.722;-1.944;2024-02-21T04:32:27;101095.77;;;9.79;100.00
81641;BME280;74020;50.722;-1.944;2024-02-21T04:34:52;101080.86;;;9.82;100.00
81641;BME280;74020;50.722;-1.944;2024-02-21T04:37:17;101084.29;;;9.69;100.00
81641;BME280;74020;50.722;-1.944;2024-02-21T04:39:43;101075.47;;;9.69;100.00
81641;BME280;74020;50.722;-1.944;2024-02-21T04:42:08;101065.98;;;9.50;100.00
81641;BME280;74020;50.722;-1.944;2024-02-21T04:44:33;101061.18;;;9.53;100.00
81641;BME280;74020;50.722;-1.944;2024-02-21T04:46:59;101052.82;;;9.55;100.00
81641;BME280;74020;50.722;-1.944;2024-02-21T04:49:24;101042.16;;;9.41;100.00
81641;BME280;74020;50.722;-1.944;2024-02-21T04:51:49;101045.91;;;9.42;100.00
81641;BME280;74020;50.722;-1.944;2024-02-21T04:54:14;101036.68;;;9.54;100.00
81641;BME280;74020;50.722;-1.944;2024-02-21T04:56:40;101031.03;;;9.46;100.00
81641;BME280;74020;50.722;-1.944;2024-02-21T04:59:05;101018.81;;;9.58;100.00
81641;BME280;74020;50.722;-1.944;2024-02-21T05:01:31;101022.90;;;9.58;100.00
81641;BME280;74020;50.722;-1.944;2024-02-21T05:03:56;101013.25;;;9.54;100.00
81641;BME280;74020;50.722;-1.944;2024-02-21T05:06:21;101001.14;;;9.42;100.00
81641;BME280;74020;50.722;-1.944;2024-02-21T05:08:47;100985.61;;;9.52;100.00
81641;BME280;74020;50.722;-1.944;2024-02-21T05:11:12;100973.08;;;9.63;100.00
81641;BME280;74020;50.722;-1.944;2024-02-21T05:13:37;100971.46;;;9.68;100.00
81641;BME280;74020;50.722;-1.944;2024-02-21T05:16:03;100971.64;;;9.51;100.00
81641;BME280;74020;50.722;-1.944;2024-02-21T05:18:28;100968.04;;;9.55;100.00
81641;BME280;74020;50.722;-1.944;2024-02-21T05:20:53;100957.63;;;9.68;100.00
81641;BME280;74020;50.722;-1.944;2024-02-21T05:23:19;100948.64;;;9.54;100.00
81641;BME280;74020;50.722;-1.944;2024-02-21T05:25:46;100941.55;;;9.54;100.00
81641;BME280;74020;50.722;-1.944;2024-02-21T05:28:09;100934.83;;;9.62;100.00
81641;BME280;74020;50.722;-1.944;2024-02-21T05:30:34;100930.98;;;9.53;100.00
81641;BME280;74020;50.722;-1.944;2024-02-21T05:33:04;100922.65;;;9.56;100.00
81641;BME280;74020;50.722;-1.944;2024-02-21T05:35:26;100917.64;;;9.49;100.00
81641;BME280;74020;50.722;-1.944;2024-02-21T05:37:50;100910.42;;;9.58;100.00
81641;BME280;74020;50.722;-1.944;2024-02-21T05:40:16;100906.74;;;9.58;100.00
81641;BME280;74020;50.722;-1.944;2024-02-21T05:42:41;100896.12;;;9.47;100.00
81641;BME280;74020;50.722;-1.944;2024-02-21T05:45:07;100897.47;;;9.56;100.00
81641;BME280;74020;50.722;-1.944;2024-02-21T05:47:32;100892.80;;;9.55;100.00
81641;BME280;74020;50.722;-1.944;2024-02-21T05:49:57;100887.93;;;9.64;100.00
81641;BME280;74020;50.722;-1.944;2024-02-21T05:52:22;100881.97;;;9.55;100.00
81641;BME280;74020;50.722;-1.944;2024-02-21T05:54:48;100876.42;;;9.61;100.00
81641;BME280;74020;50.722;-1.944;2024-02-21T05:57:13;100874.21;;;9.43;100.00
81641;BME280;74020;50.722;-1.944;2024-02-21T05:59:39;100867.79;;;9.57;100.00
81641;BME280;74020;50.722;-1.944;2024-02-21T06:02:04;100868.23;;;9.52;100.00
81641;BME280;74020;50.722;-1.944;2024-02-21T06:04:29;100865.20;;;9.60;100.00
81641;BME280;74020;50.722;-1.944;2024-02-21T06:06:55;100856.28;;;9.51;100.00
81641;BME280;74020;50.722;-1.944;2024-02-21T06:09:20;100850.53;;;9.49;100.00
81641;BME280;74020;50.722;-1.944;2024-02-21T06:11:46;100849.62;;;9.53;100.00
81641;BME280;74020;50.722;-1.944;2024-02-21T06:14:11;100842.66;;;9.39;100.00
81641;BME280;74020;50.722;-1.944;2024-02-21T06:16:36;100832.13;;;9.43;100.00
81641;BME280;74020;50.722;-1.944;2024-02-21T06:19:02;100825.44;;;9.44;100.00
81641;BME280;74020;50.722;-1.944;2024-02-21T06:21:29;100817.91;;;9.43;100.00
81641;BME280;74020;50.722;-1.944;2024-02-21T06:23:52;100809.75;;;9.36;100.00
81641;BME280;74020;50.722;-1.944;2024-02-21T06:26:18;100814.21;;;9.39;100.00
81641;BME280;74020;50.722;-1.944;2024-02-21T06:28:43;100811.46;;;9.35;100.00
81641;BME280;74020;50.722;-1.944;2024-02-21T06:31:09;100807.81;;;9.27;100.00
81641;BME280;74020;50.722;-1.944;2024-02-21T06:33:34;100797.13;;;9.32;100.00
81641;BME280;74020;50.722;-1.944;2024-02-21T06:36:00;100787.57;;;9.46;100.00
81641;BME280;74020;50.722;-1.944;2024-02-21T06:38:25;100784.12;;;9.56;100.00
81641;BME280;74020;50.722;-1.944;2024-02-21T06:40:51;100777.31;;;9.56;100.00
81641;BME280;74020;50.722;-1.944;2024-02-21T06:43:17;100780.28;;;9.52;100.00
81641;BME280;74020;50.722;-1.944;2024-02-21T06:45:41;100773.19;;;9.62;100.00
81641;BME280;74020;50.722;-1.944;2024-02-21T06:48:07;100778.23;;;9.51;100.00
81641;BME280;74020;50.722;-1.944;2024-02-21T06:50:32;100762.32;;;9.61;100.00
81641;BME280;74020;50.722;-1.944;2024-02-21T06:52:57;100761.22;;;9.61;100.00
81641;BME280;74020;50.722;-1.944;2024-02-21T06:55:22;100764.70;;;9.50;100.00
81641;BME280;74020;50.722;-1.944;2024-02-21T06:57:48;100760.49;;;9.53;100.00
81641;BME280;74020;50.722;-1.944;2024-02-21T07:00:14;100748.19;;;9.60;100.00
81641;BME280;74020;50.722;-1.944;2024-02-21T07:02:39;100749.91;;;9.46;100.00
81641;BME280;74020;50.722;-1.944;2024-02-21T07:05:05;100727.44;;;9.46;100.00
81641;BME280;74020;50.722;-1.944;2024-02-21T07:07:30;100725.88;;;9.38;100.00
81641;BME280;74020;50.722;-1.944;2024-02-21T07:09:55;100720.53;;;9.31;100.00
81641;BME280;74020;50.722;-1.944;2024-02-21T07:12:21;100718.55;;;9.34;100.00
81641;BME280;74020;50.722;-1.944;2024-02-21T07:14:46;100711.03;;;9.44;100.00
81641;BME280;74020;50.722;-1.944;2024-02-21T07:17:12;100716.28;;;9.34;100.00
81641;BME280;74020;50.722;-1.944;2024-02-21T07:19:37;100710.25;;;9.44;100.00
81641;BME280;74020;50.722;-1.944;2024-02-21T07:22:04;100697.98;;;9.40;100.00
81641;BME280;74020;50.722;-1.944;2024-02-21T07:24:28;100681.24;;;9.49;100.00
81641;BME280;74020;50.722;-1.944;2024-02-21T07:26:53;100688.93;;;9.42;100.00
81641;BME280;74020;50.722;-1.944;2024-02-21T07:29:19;100676.66;;;9.42;100.00
81641;BME280;74020;50.722;-1.944;2024-02-21T07:31:45;100670.86;;;9.28;100.00
81641;BME280;74020;50.722;-1.944;2024-02-21T07:34:10;100664.53;;;9.33;100.00
81641;BME280;74020;50.722;-1.944;2024-02-21T07:36:35;100659.94;;;9.29;100.00
81641;BME280;74020;50.722;-1.944;2024-02-21T07:39:01;100654.81;;;9.28;100.00
81641;BME280;74020;50.722;-1.944;2024-02-21T07:41:26;100648.30;;;9.35;100.00
81641;BME280;74020;50.722;-1.944;2024-02-21T07:43:52;100637.09;;;9.36;100.00
81641;BME280;74020;50.722;-1.944;2024-02-21T07:46:17;100626.32;;;9.25;100.00
81641;BME280;74020;50.722;-1.944;2024-02-21T07:48:42;100618.34;;;9.25;100.00
81641;BME280;74020;50.722;-1.944;2024-02-21T07:51:08;100612.29;;;9.32;100.00
81641;BME280;74020;50.722;-1.944;2024-02-21T07:53:33;100603.97;;;9.23;100.00
81641;BME280;74020;50.722;-1.944;2024-02-21T07:55:59;100598.82;;;9.30;100.00
81641;BME280;74020;50.722;-1.944;2024-02-21T07:58:24;100586.55;;;9.32;100.00
81641;BME280;74020;50.722;-1.944;2024-02-21T08:00:50;100590.55;;;9.22;100.00
81641;BME280;74020;50.722;-1.944;2024-02-21T08:03:15;100588.65;;;9.21;100.00
81641;BME280;74020;50.722;-1.944;2024-02-21T08:05:42;100578.92;;;9.25;100.00
81641;BME280;74020;50.722;-1.944;2024-02-21T08:08:06;100573.81;;;9.27;100.00
81641;BME280;74020;50.722;-1.944;2024-02-21T08:10:31;100571.45;;;9.28;100.00
81641;BME280;74020;50.722;-1.944;2024-02-21T08:12:56;100564.35;;;9.34;100.00
81641;BME280;74020;50.722;-1.944;2024-02-21T08:15:22;100555.31;;;9.22;100.00
81641;BME280;74020;50.722;-1.944;2024-02-21T08:17:47;100551.45;;;9.26;100.00
81641;BME280;74020;50.722;-1.944;2024-02-21T08:20:13;100541.63;;;9.30;100.00
81641;BME280;74020;50.722;-1.944;2024-02-21T08:22:38;100542.78;;;9.32;100.00
81641;BME280;74020;50.722;-1.944;2024-02-21T08:25:04;100549.58;;;9.25;100.00
81641;BME280;74020;50.722;-1.944;2024-02-21T08:27:29;100528.57;;;9.18;100.00
81641;BME280;74020;50.722;-1.944;2024-02-21T08:29:54;100519.33;;;9.21;100.00
81641;BME280;74020;50.722;-1.944;2024-02-21T08:32:20;100510.18;;;9.25;100.00
81641;BME280;74020;50.722;-1.944;2024-02-21T08:34:45;100515.44;;;9.16;100.00
81641;BME280;74020;50.722;-1.944;2024-02-21T08:37:11;100501.29;;;9.23;100.00
81641;BME280;74020;50.722;-1.944;2024-02-21T08:39:36;100484.36;;;9.26;100.00
81641;BME280;74020;50.722;-1.944;2024-02-21T08:42:01;100492.84;;;9.23;100.00
81641;BME280;74020;50.722;-1.944;2024-02-21T08:44:28;100483.43;;;9.21;100.00
81641;BME280;74020;50.722;-1.944;2024-02-21T08:46:52;100480.16;;;9.16;100.00
81641;BME280;74020;50.722;-1.944;2024-02-21T08:49:17;100470.95;;;9.11;100.00
81641;BME280;74020;50.722;-1.944;2024-02-21T08:51:42;100457.87;;;9.22;100.00
81641;BME280;74020;50.722;-1.944;2024-02-21T08:54:08;100453.92;;;9.23;100.00
81641;BME280;74020;50.722;-1.944;2024-02-21T08:56:33;100444.59;;;9.14;100.00
81641;BME280;74020;50.722;-1.944;2024-02-21T08:58:59;100450.21;;;9.07;100.00
81641;BME280;74020;50.722;-1.944;2024-02-21T09:01:24;100439.42;;;9.17;100.00
81641;BME280;74020;50.722;-1.944;2024-02-21T09:03:50;100435.96;;;9.10;100.00
81641;BME280;74020;50.722;-1.944;2024-02-21T09:06:16;100416.45;;;9.24;100.00
81641;BME280;74020;50.722;-1.944;2024-02-21T09:08:41;100422.79;;;9.20;100.00
81641;BME280;74020;50.722;-1.944;2024-02-21T09:11:06;100411.46;;;9.04;100.00
81641;BME280;74020;50.722;-1.944;2024-02-21T09:13:32;100409.59;;;9.00;100.00
81641;BME280;74020;50.722;-1.944;2024-02-21T09:15:57;100393.52;;;8.95;100.00
81641;BME280;74020;50.722;-1.944;2024-02-21T09:18:22;100390.38;;;9.04;100.00
81641;BME280;74020;50.722;-1.944;2024-02-21T09:21:00;100376.36;;;8.98;100.00
81641;BME280;74020;50.722;-1.944;2024-02-21T09:23:13;100378.87;;;9.09;100.00
81641;BME280;74020;50.722;-1.944;2024-02-21T09:25:38;100356.92;;;9.17;100.00
81641;BME280;74020;50.722;-1.944;2024-02-21T09:28:04;100361.21;;;9.12;100.00
81641;BME280;74020;50.722;-1.944;2024-02-21T09:30:29;100353.68;;;9.19;100.00
81641;BME280;74020;50.722;-1.944;2024-02-21T09:32:55;100342.41;;;9.12;100.00
81641;BME280;74020;50.722;-1.944;2024-02-21T09:35:20;100335.47;;;9.14;100.00
81641;BME280;74020;50.722;-1.944;2024-02-21T09:37:46;100331.25;;;9.19;100.00
81641;BME280;74020;50.722;-1.944;2024-02-21T09:40:11;100322.14;;;9.16;100.00
81641;BME280;74020;50.722;-1.944;2024-02-21T09:42:38;100321.84;;;9.23;100.00
81641;BME280;74020;50.722;-1.944;2024-02-21T09:45:03;100319.68;;;9.21;100.00
81641;BME280;74020;50.722;-1.944;2024-02-21T09:47:34;100317.65;;;9.18;100.00
81641;BME280;74020;50.722;-1.944;2024-02-21T09:49:52;100309.37;;;9.20;100.00
81641;BME280;74020;50.722;-1.944;2024-02-21T09:52:19;100304.20;;;9.20;100.00
81641;BME280;74020;50.722;-1.944;2024-02-21T09:54:43;100302.08;;;9.29;100.00
81641;BME280;74020;50.722;-1.944;2024-02-21T09:57:08;100302.05;;;9.25;100.00
81641;BME280;74020;50.722;-1.944;2024-02-21T09:59:34;100297.75;;;9.22;100.00
81641;BME280;74020;50.722;-1.944;2024-02-21T10:01:59;100278.22;;;9.25;100.00
81641;BME280;74020;50.722;-1.944;2024-02-21T10:04:24;100281.31;;;9.23;100.00
81641;BME280;74020;50.722;-1.944;2024-02-21T10:06:50;100279.48;;;9.25;100.00
81641;BME280;74020;50.722;-1.944;2024-02-21T10:09:21;100279.63;;;9.29;100.00
81641;BME280;74020;50.722;-1.944;2024-02-21T10:11:40;100269.71;;;9.31;100.00
81641;BME280;74020;50.722;-1.944;2024-02-21T10:14:07;100280.93;;;9.30;100.00
81641;BME280;74020;50.722;-1.944;2024-02-21T10:16:31;100269.60;;;9.30;100.00
81641;BME280;74020;50.722;-1.944;2024-02-21T10:18:56;100247.73;;;9.37;100.00
81641;BME280;74020;50.722;-1.944;2024-02-21T10:21:22;100256.39;;;9.33;100.00
81641;BME280;74020;50.722;-1.944;2024-02-21T10:23:49;100249.48;;;9.25;100.00
81641;BME280;74020;50.722;-1.944;2024-02-21T10:26:13;100245.90;;;9.28;100.00
81641;BME280;74020;50.722;-1.944;2024-02-21T10:28:39;100228.94;;;9.32;100.00
81641;BME280;74020;50.722;-1.944;2024-02-21T10:31:03;100229.17;;;9.36;100.00
81641;BME280;74020;50.722;-1.944;2024-02-21T10:33:29;100223.22;;;9.40;100.00
81641;BME280;74020;50.722;-1.944;2024-02-21T10:35:54;100224.50;;;9.46;100.00
81641;BME280;74020;50.722;-1.944;2024-02-21T10:38:20;100216.18;;;9.42;100.00
81641;BME280;74020;50.722;-1.944;2024-02-21T10:40:47;100217.92;;;9.53;100.00
81641;BME280;74020;50.722;-1.944;2024-02-21T10:43:13;100199.67;;;9.51;100.00
81641;BME280;74020;50.722;-1.944;2024-02-21T10:45:36;100196.25;;;9.58;100.00
81641;BME280;74020;50.722;-1.944;2024-02-21T10:48:08;100180.44;;;9.54;100.00
81641;BME280;74020;50.722;-1.944;2024-02-21T10:50:28;100187.91;;;9.38;100.00
81641;BME280;74020;50.722;-1.944;2024-02-21T10:53:00;100183.65;;;9.46;100.00
81641;BME280;74020;50.722;-1.944;2024-02-21T10:55:20;100161.18;;;9.52;100.00
81641;BME280;74020;50.722;-1.944;2024-02-21T10:57:43;100159.72;;;9.45;100.00
81641;BME280;74020;50.722;-1.944;2024-02-21T11:00:09;100139.17;;;9.51;100.00
81641;BME280;74020;50.722;-1.944;2024-02-21T11:02:34;100149.09;;;9.51;100.00
81641;BME280;74020;50.722;-1.944;2024-02-21T11:04:59;100156.99;;;9.59;100.00
81641;BME280;74020;50.722;-1.944;2024-02-21T11:07:25;100142.00;;;9.52;100.00
81641;BME280;74020;50.722;-1.944;2024-02-21T11:09:52;100135.89;;;9.64;100.00
81641;BME280;74020;50.722;-1.944;2024-02-21T11:12:20;100152.88;;;9.62;100.00
81641;BME280;74020;50.722;-1.944;2024-02-21T11:14:46;100147.36;;;9.61;100.00
81641;BME280;74020;50.722;-1.944;2024-02-21T11:17:14;100131.52;;;9.68;100.00
81641;BME280;74020;50.722;-1.944;2024-02-21T11:19:31;100130.30;;;9.61;100.00
81641;BME280;74020;50.722;-1.944;2024-02-21T11:21:57;100127.29;;;9.70;100.00
81641;BME280;74020;50.722;-1.944;2024-02-21T11:24:26;100109.96;;;9.79;100.00
81641;BME280;74020;50.722;-1.944;2024-02-21T11:26:49;100105.17;;;9.76;100.00
81641;BME280;74020;50.722;-1.944;2024-02-21T11:29:22;100099.57;;;9.68;100.00
81641;BME280;74020;50.722;-1.944;2024-02-21T11:31:39;100086.28;;;9.68;100.00
81641;BME280;74020;50.722;-1.944;2024-02-21T11:34:04;100084.47;;;9.75;100.00
81641;BME280;74020;50.722;-1.944;2024-02-21T11:36:29;100071.86;;;9.76;100.00
81641;BME280;74020;50.722;-1.944;2024-02-21T11:39:03;100075.22;;;9.81;100.00
81641;BME280;74020;50.722;-1.944;2024-02-21T11:41:20;100059.92;;;9.63;100.00
81641;BME280;74020;50.722;-1.944;2024-02-21T11:46:11;100055.89;;;9.82;100.00
81641;BME280;74020;50.722;-1.944;2024-02-21T11:48:36;100051.26;;;9.88;100.00
81641;BME280;74020;50.722;-1.944;2024-02-21T11:51:02;100031.93;;;9.72;100.00
81641;BME280;74020;50.722;-1.944;2024-02-21T11:53:27;100026.10;;;9.73;100.00
81641;BME280;74020;50.722;-1.944;2024-02-21T11:55:52;99998.70;;;9.71;100.00
81641;BME280;74020;50.722;-1.944;2024-02-21T11:58:18;100003.66;;;9.76;100.00
81641;BME280;74020;50.722;-1.944;2024-02-21T12:00:43;99981.19;;;9.74;100.00
81641;BME280;74020;50.722;-1.944;2024-02-21T12:03:08;99981.56;;;9.81;100.00
81641;BME280;74020;50.722;-1.944;2024-02-21T12:05:34;99977.63;;;9.79;100.00
81641;BME280;74020;50.722;-1.944;2024-02-21T12:07:59;99973.95;;;9.82;100.00
81641;BME280;74020;50.722;-1.944;2024-02-21T12:10:26;99967.94;;;9.76;100.00
81641;BME280;74020;50.722;-1.944;2024-02-21T12:12:50;99963.49;;;9.92;100.00
81641;BME280;74020;50.722;-1.944;2024-02-21T12:15:15;99957.06;;;9.83;100.00
81641;BME280;74020;50.722;-1.944;2024-02-21T12:17:41;99938.86;;;9.83;100.00
81641;BME280;74020;50.722;-1.944;2024-02-21T12:20:07;99931.24;;;9.81;100.00
81641;BME280;74020;50.722;-1.944;2024-02-21T12:22:32;99936.56;;;9.80;100.00
81641;BME280;74020;50.722;-1.944;2024-02-21T12:24:57;99929.74;;;9.91;100.00
81641;BME280;74020;50.722;-1.944;2024-02-21T12:27:22;99914.95;;;9.90;100.00
81641;BME280;74020;50.722;-1.944;2024-02-21T12:29:48;99899.82;;;9.90;100.00
81641;BME280;74020;50.722;-1.944;2024-02-21T12:32:13;99897.87;;;9.84;100.00
81641;BME280;74020;50.722;-1.944;2024-02-21T12:34:39;99891.31;;;9.83;100.00